createdAt,value
2023-02-16T00:02:13.114Z,88.21
2023-02-16T00:04:41.739Z,88.14
2023-02-16T00:07:10.478Z,88.13
2023-02-16T00:09:39.094Z,88.19
2023-02-16T00:12:37.502Z,88.03
2023-02-16T00:15:18.476Z,88.29
2023-02-16T00:17:49.688Z,88.40
2023-02-16T00:20:19.184Z,88.69
2023-02-16T00:22:50.067Z,88.66
2023-02-16T00:25:21.631Z,88.64
2023-02-16T00:27:53.822Z,88.07
2023-02-16T00:30:25.785Z,87.64
2023-02-16T00:32:54.534Z,88.13
2023-02-16T00:35:28.456Z,88.21
2023-02-16T00:38:00.555Z,88.23
2023-02-16T00:40:29.255Z,88.58
2023-02-16T00:42:58.319Z,88.45
2023-02-16T00:45:33.498Z,88.27
2023-02-16T00:48:03.255Z,88.08
2023-02-16T00:50:35.733Z,88.16
2023-02-16T00:53:07.192Z,88.20
2023-02-16T00:55:40.262Z,88.44
2023-02-16T00:58:24.784Z,88.50
2023-02-16T01:00:56.572Z,88.49
2023-02-16T01:03:28.624Z,88.40
2023-02-16T01:06:17.140Z,88.73
2023-02-16T01:09:04.255Z,89.04
2023-02-16T01:11:34.389Z,89.13
2023-02-16T01:14:06.598Z,89.31
2023-02-16T01:16:44.766Z,89.01
2023-02-16T01:19:16.419Z,89.09
2023-02-16T01:21:45.550Z,89.11
2023-02-16T01:24:14.266Z,88.98
2023-02-16T01:26:49.307Z,88.43
2023-02-16T01:29:20.245Z,88.21
2023-02-16T01:31:51.513Z,88.11
2023-02-16T01:34:20.822Z,88.13
2023-02-16T01:36:50.016Z,87.71
2023-02-16T01:39:21.125Z,87.50
2023-02-16T01:42:00.697Z,87.92
2023-02-16T01:44:57.361Z,88.28
2023-02-16T01:47:45.462Z,88.39
2023-02-16T01:50:29.025Z,88.61
2023-02-16T01:53:02.069Z,88.82
2023-02-16T01:55:48.473Z,89.45
2023-02-16T01:58:32.338Z,89.59
2023-02-16T02:01:00.852Z,89.71
2023-02-16T02:03:53.015Z,90.25
2023-02-16T02:06:28.286Z,90.74
2023-02-16T02:09:18.507Z,90.83
2023-02-16T02:11:54.963Z,91.41
2023-02-16T02:14:30.498Z,91.42
2023-02-16T02:17:01.202Z,91.29
2023-02-16T02:19:58.747Z,91.49
2023-02-16T02:23:07.551Z,91.63
2023-02-16T02:25:58.779Z,91.69
2023-02-16T02:28:55.019Z,92.09
2023-02-16T02:32:05.364Z,92.77
2023-02-16T02:35:04.096Z,92.99
2023-02-16T02:37:44.477Z,93.30
2023-02-16T02:40:32.296Z,93.97
2023-02-16T02:43:19.236Z,94.58
2023-02-16T02:46:05.221Z,94.77
2023-02-16T02:48:35.072Z,95.84
2023-02-16T02:51:30.936Z,95.98
2023-02-16T02:54:23.233Z,96.14
2023-02-16T02:57:18.691Z,96.03
2023-02-16T03:00:13.857Z,96.26
2023-02-16T03:02:45.331Z,96.20
2023-02-16T03:05:22.534Z,96.51
2023-02-16T03:07:57.995Z,96.76
2023-02-16T03:10:47.659Z,97.02
2023-02-16T03:13:33.793Z,96.84
2023-02-16T03:16:14.533Z,96.77
2023-02-16T03:19:06.701Z,97.09
2023-02-16T03:21:54.842Z,97.42
2023-02-16T03:24:49.026Z,97.07
2023-02-16T03:27:44.146Z,96.93
2023-02-16T03:30:17.042Z,96.87
2023-02-16T03:32:49.880Z,96.91
2023-02-16T03:35:20.805Z,97.24
2023-02-16T03:37:53.071Z,97.32
2023-02-16T03:40:28.586Z,97.24
2023-02-16T03:43:00.491Z,96.86
2023-02-16T03:45:34.672Z,96.97
2023-02-16T03:48:04.119Z,96.84
2023-02-16T03:50:32.965Z,96.69
2023-02-16T03:53:07.936Z,96.60
2023-02-16T03:55:46.029Z,96.53
2023-02-16T03:58:20.018Z,96.77
2023-02-16T04:00:48.534Z,97.02
2023-02-16T04:03:18.409Z,97.10
2023-02-16T04:05:47.041Z,97.00
2023-02-16T04:08:18.269Z,96.19
2023-02-16T04:10:49.738Z,95.20
2023-02-16T04:13:23.191Z,94.53
2023-02-16T04:15:52.651Z,93.82
2023-02-16T04:18:25.684Z,93.77
2023-02-16T04:20:54.713Z,93.79
2023-02-16T04:23:23.346Z,93.61
2023-02-16T04:25:52.728Z,92.82
2023-02-16T04:28:21.398Z,92.39
2023-02-16T04:30:53.350Z,92.59
2023-02-16T04:33:22.190Z,92.88
2023-02-16T04:35:50.935Z,93.18
2023-02-16T04:38:22.232Z,93.54
2023-02-16T04:40:53.908Z,93.96
2023-02-16T04:43:22.613Z,93.47
2023-02-16T04:45:53.930Z,93.23
2023-02-16T04:48:22.549Z,92.76
2023-02-16T04:50:54.562Z,93.26
2023-02-16T04:53:23.883Z,93.25
2023-02-16T04:55:56.289Z,93.80
2023-02-16T04:58:24.938Z,93.99
2023-02-16T05:00:57.147Z,94.47
2023-02-16T05:03:32.235Z,94.32
2023-02-16T05:06:01.742Z,94.41
2023-02-16T05:08:34.400Z,94.43
2023-02-16T05:11:21.604Z,94.77
2023-02-16T05:14:08.887Z,94.69
2023-02-16T05:16:38.286Z,94.66
2023-02-16T05:19:14.915Z,94.72
2023-02-16T05:21:47.192Z,94.30
2023-02-16T05:24:15.843Z,94.48
2023-02-16T05:26:47.546Z,94.37
2023-02-16T05:29:19.155Z,94.12
2023-02-16T05:31:48.100Z,94.05
2023-02-16T05:34:22.245Z,94.50
2023-02-16T05:36:53.792Z,95.04
2023-02-16T05:39:22.628Z,95.18
2023-02-16T05:41:53.529Z,95.02
2023-02-16T05:44:26.312Z,94.74
2023-02-16T05:46:54.855Z,94.50
2023-02-16T05:49:26.102Z,94.73
2023-02-16T05:51:54.702Z,95.07
2023-02-16T05:54:23.508Z,95.24
2023-02-16T05:56:57.956Z,94.73
2023-02-16T05:59:27.513Z,94.43
2023-02-16T06:01:57.043Z,94.53
2023-02-16T06:04:25.950Z,93.96
2023-02-16T06:06:54.917Z,94.15
2023-02-16T06:09:25.769Z,94.51
2023-02-16T06:11:55.024Z,94.54
2023-02-16T06:14:23.730Z,93.85
2023-02-16T06:16:58.028Z,94.18
2023-02-16T06:19:32.754Z,94.74
2023-02-16T06:22:01.490Z,94.86
2023-02-16T06:24:30.164Z,95.03
2023-02-16T06:26:59.194Z,94.96
2023-02-16T06:29:28.447Z,94.42
2023-02-16T06:31:57.984Z,94.27
2023-02-16T06:34:28.941Z,94.68
2023-02-16T06:36:57.700Z,94.81
2023-02-16T06:39:26.474Z,94.67
2023-02-16T06:41:57.624Z,94.28
2023-02-16T06:44:29.349Z,94.26
2023-02-16T06:46:58.053Z,94.38
2023-02-16T06:49:27.889Z,94.57
2023-02-16T06:51:59.455Z,93.43
2023-02-16T06:54:31.993Z,92.83
2023-02-16T06:57:03.880Z,92.53
2023-02-16T06:59:37.762Z,92.64
2023-02-16T07:02:07.445Z,91.92
2023-02-16T07:04:38.571Z,90.49
2023-02-16T07:07:10.485Z,90.27
2023-02-16T07:09:39.716Z,90.80
2023-02-16T07:12:10.304Z,90.58
2023-02-16T07:14:39.558Z,90.20
2023-02-16T07:17:08.317Z,89.52
2023-02-16T07:19:37.468Z,89.69
2023-02-16T07:22:06.052Z,89.52
2023-02-16T07:24:34.712Z,89.23
2023-02-16T07:27:05.406Z,88.64
2023-02-16T07:29:33.973Z,88.81
2023-02-16T07:32:03.634Z,88.62
2023-02-16T07:34:32.388Z,88.79
2023-02-16T07:37:01.020Z,88.64
2023-02-16T07:39:31.183Z,88.47
2023-02-16T07:42:00.304Z,88.37
2023-02-16T07:44:29.157Z,87.71
2023-02-16T07:46:58.056Z,87.49
2023-02-16T07:49:26.722Z,87.72
2023-02-16T07:51:55.407Z,87.71
2023-02-16T07:54:26.995Z,88.41
2023-02-16T07:56:55.763Z,88.55
2023-02-16T07:59:32.787Z,88.01
2023-02-16T08:02:01.586Z,88.23
2023-02-16T08:04:34.557Z,88.42
2023-02-16T08:07:11.298Z,87.24
2023-02-16T08:09:47.157Z,86.56
2023-02-16T08:12:22.145Z,86.80
2023-02-16T08:14:51.380Z,85.77
2023-02-16T08:17:26.466Z,85.72
2023-02-16T08:19:55.063Z,85.72
2023-02-16T08:22:24.222Z,84.90
2023-02-16T08:24:54.302Z,85.07
2023-02-16T08:27:28.204Z,85.10
2023-02-16T08:29:57.924Z,85.31
2023-02-16T08:32:28.025Z,85.58
2023-02-16T08:35:00.357Z,86.28
2023-02-16T08:37:30.518Z,86.09
2023-02-16T08:40:04.820Z,86.57
2023-02-16T08:42:34.867Z,86.57
2023-02-16T08:45:05.670Z,86.39
2023-02-16T08:47:38.646Z,86.26
2023-02-16T08:50:07.897Z,86.39
2023-02-16T08:52:39.316Z,85.56
2023-02-16T08:55:09.747Z,84.63
2023-02-16T08:57:39.001Z,84.97
2023-02-16T09:00:31.836Z,85.14
2023-02-16T09:03:01.096Z,85.11
2023-02-16T09:05:29.809Z,84.16
2023-02-16T09:07:58.828Z,84.03
2023-02-16T09:10:27.769Z,84.16
2023-02-16T09:12:58.421Z,83.29
2023-02-16T09:15:27.947Z,82.57
2023-02-16T09:18:00.690Z,82.03
2023-02-16T09:20:30.096Z,81.85
2023-02-16T09:22:59.580Z,82.20
2023-02-16T09:25:30.558Z,82.35
2023-02-16T09:28:00.419Z,82.28
2023-02-16T09:30:31.405Z,82.50
2023-02-16T09:33:00.325Z,83.04
2023-02-16T09:35:29.576Z,82.99
2023-02-16T09:38:00.620Z,83.37
2023-02-16T09:40:30.025Z,83.74
2023-02-16T09:43:23.093Z,83.92
2023-02-16T09:45:55.041Z,83.77
2023-02-16T09:48:32.192Z,83.58
2023-02-16T09:51:04.540Z,83.59
2023-02-16T09:53:37.672Z,83.65
2023-02-16T09:56:20.474Z,83.79
2023-02-16T09:59:11.643Z,83.84
2023-02-16T10:01:53.804Z,84.14
2023-02-16T10:04:46.299Z,84.35
2023-02-16T10:07:27.187Z,84.48
2023-02-16T10:09:59.003Z,84.82
2023-02-16T10:12:39.308Z,84.63
2023-02-16T10:15:23.129Z,84.63
2023-02-16T10:17:58.538Z,84.53
2023-02-16T10:20:48.544Z,84.29
2023-02-16T10:23:31.135Z,84.24
2023-02-16T10:27:05.424Z,84.57
2023-02-16T10:29:58.338Z,84.85
2023-02-16T10:33:04.072Z,85.05
2023-02-16T10:35:52.557Z,85.76
2023-02-16T10:38:39.790Z,85.64
2023-02-16T10:41:37.367Z,85.18
2023-02-16T10:44:22.138Z,85.78
2023-02-16T10:47:03.478Z,86.40
2023-02-16T10:49:35.956Z,86.54
2023-02-16T10:52:08.172Z,86.15
2023-02-16T10:55:08.289Z,85.99
2023-02-16T10:57:37.408Z,85.98
2023-02-16T11:00:18.365Z,86.77
2023-02-16T11:02:52.652Z,86.27
2023-02-16T11:05:28.600Z,85.57
2023-02-16T11:08:02.488Z,85.35
2023-02-16T11:10:49.376Z,85.19
2023-02-16T11:13:24.363Z,85.57
2023-02-16T11:15:56.174Z,86.05
2023-02-16T11:18:38.106Z,85.62
2023-02-16T11:21:09.349Z,85.18
2023-02-16T11:23:43.740Z,85.41
2023-02-16T11:26:12.288Z,85.27
2023-02-16T11:28:44.625Z,84.81
2023-02-16T11:31:40.003Z,84.23
2023-02-16T11:34:20.655Z,84.19
2023-02-16T11:36:49.371Z,84.33
2023-02-16T11:39:31.160Z,84.81
2023-02-16T11:42:06.258Z,85.66
2023-02-16T11:44:36.742Z,85.48
2023-02-16T11:47:32.369Z,84.60
2023-02-16T11:50:09.733Z,84.86
2023-02-16T11:52:38.080Z,84.94
2023-02-16T11:55:27.438Z,84.72
2023-02-16T11:57:57.243Z,84.95
2023-02-16T12:00:26.661Z,84.92
2023-02-16T12:03:21.832Z,84.40
2023-02-16T12:06:02.533Z,84.08
2023-02-16T12:08:40.099Z,84.43
2023-02-16T12:11:25.612Z,84.91
2023-02-16T12:14:10.096Z,84.39
2023-02-16T12:16:52.130Z,84.63
2023-02-16T12:19:29.967Z,84.55
2023-02-16T12:22:40.225Z,84.31
2023-02-16T12:25:25.796Z,83.75
2023-02-16T12:28:19.146Z,83.79
2023-02-16T12:30:52.965Z,83.60
2023-02-16T12:33:38.064Z,83.50
2023-02-16T12:36:25.414Z,83.65
2023-02-16T12:39:22.977Z,84.05
2023-02-16T12:42:20.366Z,84.53
2023-02-16T12:44:53.556Z,84.84
2023-02-16T12:47:32.554Z,84.88
2023-02-16T12:50:18.670Z,84.74
2023-02-16T12:52:55.392Z,84.48
2023-02-16T12:55:26.757Z,83.74
2023-02-16T12:58:20.101Z,83.36
2023-02-16T13:00:57.529Z,83.15
2023-02-16T13:03:44.880Z,82.85
2023-02-16T13:06:34.082Z,82.01
2023-02-16T13:10:00.262Z,82.16
2023-02-16T13:12:53.321Z,82.01
2023-02-16T13:15:24.670Z,81.71
2023-02-16T13:18:01.232Z,82.02
2023-02-16T13:20:30.363Z,82.07
2023-02-16T13:23:04.793Z,81.87
2023-02-16T13:25:55.249Z,81.26
2023-02-16T13:28:47.112Z,81.62
2023-02-16T13:31:29.730Z,81.32
2023-02-16T13:34:11.039Z,80.37
2023-02-16T13:36:51.438Z,80.73
2023-02-16T13:39:45.645Z,81.06
2023-02-16T13:42:44.496Z,80.96
2023-02-16T13:45:24.071Z,81.03
2023-02-16T13:47:57.915Z,81.05
2023-02-16T13:50:35.296Z,81.20
2023-02-16T13:53:22.165Z,81.27
2023-02-16T13:56:25.818Z,80.57
2023-02-16T13:59:00.451Z,80.91
2023-02-16T14:01:34.307Z,80.30
2023-02-16T14:04:04.542Z,80.08
2023-02-16T14:06:38.032Z,80.17
2023-02-16T14:09:12.493Z,79.59
2023-02-16T14:11:53.372Z,80.02
2023-02-16T14:14:41.851Z,80.16
2023-02-16T14:17:19.858Z,79.77
2023-02-16T14:20:05.374Z,79.91
2023-02-16T14:22:46.284Z,80.00
2023-02-16T14:25:24.015Z,79.92
2023-02-16T14:27:54.341Z,79.66
2023-02-16T14:30:36.120Z,79.29
2023-02-16T14:33:26.404Z,79.32
2023-02-16T14:35:58.883Z,79.51
2023-02-16T14:38:34.994Z,79.75
2023-02-16T14:41:09.052Z,79.69
2023-02-16T14:43:46.900Z,79.43
2023-02-16T14:46:53.626Z,79.23
2023-02-16T14:49:40.796Z,78.50
2023-02-16T14:52:10.954Z,77.82
2023-02-16T14:55:17.899Z,77.83
2023-02-16T14:58:02.319Z,78.16
2023-02-16T15:00:44.894Z,77.69
2023-02-16T15:03:22.263Z,78.20
2023-02-16T15:06:06.265Z,78.25
2023-02-16T15:08:37.096Z,76.98
2023-02-16T15:11:11.785Z,77.56
2023-02-16T15:13:41.190Z,77.11
2023-02-16T15:16:15.700Z,77.29
2023-02-16T15:18:48.203Z,77.76
2023-02-16T15:21:28.626Z,78.90
2023-02-16T15:24:01.088Z,79.53
2023-02-16T15:26:38.410Z,80.35
2023-02-16T15:29:27.766Z,80.52
2023-02-16T15:31:59.074Z,80.73
2023-02-16T15:34:34.064Z,81.24
2023-02-16T15:37:40.769Z,81.49
2023-02-16T15:40:26.524Z,81.65
2023-02-16T15:42:58.695Z,82.32
2023-02-16T15:45:35.587Z,82.86
2023-02-16T15:48:33.766Z,83.00
2023-02-16T15:51:17.688Z,83.78
2023-02-16T15:54:02.087Z,83.80
2023-02-16T15:56:48.650Z,84.00
2023-02-16T15:59:38.924Z,84.91
2023-02-16T16:02:20.613Z,84.65
2023-02-16T16:04:54.987Z,84.53
2023-02-16T16:07:28.046Z,85.23
2023-02-16T16:09:57.312Z,84.99
2023-02-16T16:12:27.253Z,85.12
2023-02-16T16:14:59.533Z,85.05
2023-02-16T16:17:31.383Z,85.42
2023-02-16T16:20:26.284Z,85.45
2023-02-16T16:23:06.537Z,85.95
2023-02-16T16:25:38.677Z,86.94
2023-02-16T16:28:11.972Z,87.03
2023-02-16T16:30:47.029Z,87.37
2023-02-16T16:33:18.082Z,87.68
2023-02-16T16:35:49.421Z,88.14
2023-02-16T16:38:27.528Z,88.17
2023-02-16T16:40:58.897Z,88.30
2023-02-16T16:43:33.609Z,88.40
2023-02-16T16:46:13.995Z,88.57
2023-02-16T16:48:46.872Z,88.68
2023-02-16T16:51:22.836Z,89.02
2023-02-16T16:53:53.169Z,89.71
2023-02-16T16:56:22.437Z,89.30
2023-02-16T16:58:52.460Z,89.30
2023-02-16T17:01:21.952Z,89.47
2023-02-16T17:03:50.675Z,89.82
2023-02-16T17:06:20.474Z,90.12
2023-02-16T17:08:49.234Z,90.38
2023-02-16T17:11:29.399Z,90.40
2023-02-16T17:14:08.678Z,90.51
2023-02-16T17:16:41.149Z,90.93
2023-02-16T17:19:21.929Z,90.51
2023-02-16T17:21:51.610Z,90.20
2023-02-16T17:24:21.013Z,89.67
2023-02-16T17:26:50.682Z,88.95
2023-02-16T17:29:19.255Z,88.56
2023-02-16T17:31:50.749Z,88.67
2023-02-16T17:34:19.963Z,88.68
2023-02-16T17:36:48.519Z,88.65
2023-02-16T17:39:18.055Z,88.35
2023-02-16T17:41:46.927Z,87.91
2023-02-16T17:44:18.983Z,87.80
2023-02-16T17:46:47.663Z,87.71
2023-02-16T17:49:16.763Z,87.59
2023-02-16T17:51:47.500Z,87.74
2023-02-16T17:54:16.708Z,87.97
2023-02-16T17:56:47.193Z,87.95
2023-02-16T17:59:16.136Z,87.86
2023-02-16T18:01:47.196Z,87.76
2023-02-16T18:04:18.095Z,87.60
2023-02-16T18:06:47.748Z,87.53
2023-02-16T18:09:20.862Z,87.91
2023-02-16T18:11:49.362Z,88.48
2023-02-16T18:14:18.044Z,88.72
2023-02-16T18:16:52.210Z,88.58
2023-02-16T18:19:26.983Z,88.93
2023-02-16T18:21:58.609Z,89.04
2023-02-16T18:24:33.138Z,89.25
2023-02-16T18:27:07.601Z,89.49
2023-02-16T18:29:36.761Z,89.47
2023-02-16T18:32:05.858Z,89.69
2023-02-16T18:34:35.243Z,89.32
2023-02-16T18:37:06.425Z,88.85
2023-02-16T18:39:37.648Z,88.96
2023-02-16T18:42:06.277Z,89.47
2023-02-16T18:44:35.447Z,89.55
2023-02-16T18:47:04.060Z,89.61
2023-02-16T18:49:32.762Z,89.80
2023-02-16T18:52:10.540Z,90.21
2023-02-16T18:54:44.944Z,90.03
2023-02-16T18:57:16.765Z,90.13
2023-02-16T18:59:45.994Z,90.22
2023-02-16T19:02:19.661Z,90.05
2023-02-16T19:04:48.710Z,89.79
2023-02-16T19:07:24.071Z,89.55
2023-02-16T19:10:01.176Z,89.50
2023-02-16T19:12:37.917Z,89.50
2023-02-16T19:15:07.967Z,89.51
2023-02-16T19:17:42.464Z,89.69
2023-02-16T19:20:18.761Z,89.60
2023-02-16T19:22:48.424Z,89.40
2023-02-16T19:25:22.502Z,89.25
2023-02-16T19:27:57.194Z,89.07
2023-02-16T19:30:28.119Z,89.04
2023-02-16T19:32:56.856Z,89.12
2023-02-16T19:35:25.500Z,88.89
2023-02-16T19:37:54.142Z,88.75
2023-02-16T19:40:34.462Z,88.71
2023-02-16T19:43:05.296Z,88.67
2023-02-16T19:45:41.407Z,88.66
2023-02-16T19:48:20.712Z,88.78
2023-02-16T19:50:57.897Z,89.12
2023-02-16T19:53:27.161Z,89.16
2023-02-16T19:55:55.834Z,89.22
2023-02-16T19:58:26.791Z,89.00
2023-02-16T20:00:55.675Z,89.00
2023-02-16T20:03:27.152Z,89.03
2023-02-16T20:05:57.311Z,88.99
2023-02-16T20:08:37.523Z,89.02
2023-02-16T20:11:08.592Z,88.88
2023-02-16T20:13:39.247Z,88.82
2023-02-16T20:16:12.679Z,88.52
2023-02-16T20:18:47.832Z,88.53
2023-02-16T20:21:28.568Z,88.58
2023-02-16T20:24:03.948Z,88.69
2023-02-16T20:26:39.635Z,88.69
2023-02-16T20:29:12.347Z,88.60
2023-02-16T20:31:53.521Z,88.60
2023-02-16T20:34:27.801Z,88.63
2023-02-16T20:36:58.911Z,88.55
2023-02-16T20:39:36.496Z,88.62
2023-02-16T20:42:06.360Z,88.62
2023-02-16T20:44:35.715Z,88.60
2023-02-16T20:47:05.287Z,88.65
2023-02-16T20:49:35.169Z,88.66
2023-02-16T20:52:07.239Z,88.63
2023-02-16T20:54:36.979Z,88.50
2023-02-16T20:57:09.549Z,88.45
2023-02-16T20:59:45.558Z,88.37
2023-02-16T21:02:15.239Z,88.41
2023-02-16T21:04:48.690Z,88.31
2023-02-16T21:07:17.351Z,88.52
2023-02-16T21:13:12.140Z,88.61
2023-02-16T21:15:40.992Z,88.60
2023-02-16T21:18:12.072Z,88.25
2023-02-16T21:20:41.354Z,88.31
2023-02-16T21:23:13.238Z,88.01
2023-02-16T21:25:42.702Z,88.13
2023-02-16T21:28:11.772Z,88.33
2023-02-16T21:30:43.638Z,88.08
2023-02-16T21:33:12.357Z,87.93
2023-02-16T21:35:41.020Z,87.82
2023-02-16T21:38:10.418Z,88.07
2023-02-16T21:40:57.611Z,88.10
2023-02-16T21:43:29.037Z,88.25
2023-02-16T21:46:01.524Z,88.05
2023-02-16T21:48:46.148Z,87.73
2023-02-16T21:51:21.330Z,87.77
2023-02-16T21:53:51.265Z,87.72
2023-02-16T21:56:32.296Z,87.83
2023-02-16T21:59:01.379Z,87.81
2023-02-16T22:01:33.437Z,87.72
2023-02-16T22:04:02.788Z,87.74
2023-02-16T22:06:40.234Z,87.91
2023-02-16T22:09:14.492Z,87.93
2023-02-16T22:11:43.535Z,88.00
2023-02-16T22:14:13.751Z,88.17
2023-02-16T22:16:46.844Z,88.06
2023-02-16T22:19:18.536Z,88.32
2023-02-16T22:21:48.422Z,88.46
2023-02-16T22:24:18.404Z,88.52
2023-02-16T22:26:48.902Z,88.56
2023-02-16T22:29:18.013Z,88.48
2023-02-16T22:31:48.661Z,88.45
2023-02-16T22:34:20.511Z,88.26
2023-02-16T22:36:49.620Z,88.11
2023-02-16T22:39:19.410Z,88.24
2023-02-16T22:41:51.829Z,88.32
2023-02-16T22:44:20.830Z,88.17
2023-02-16T22:46:49.368Z,87.95
2023-02-16T22:49:18.212Z,87.51
2023-02-16T22:51:49.781Z,87.28
2023-02-16T22:54:18.544Z,87.31
2023-02-16T22:56:47.143Z,87.35
2023-02-16T22:59:15.589Z,87.40
2023-02-16T23:01:44.077Z,87.58
2023-02-16T23:04:15.608Z,87.89
2023-02-16T23:06:45.230Z,88.04
2023-02-16T23:09:22.122Z,87.86
2023-02-16T23:11:51.833Z,87.80
2023-02-16T23:14:21.025Z,88.05
2023-02-16T23:16:53.410Z,87.98
2023-02-16T23:19:25.008Z,87.65
2023-02-16T23:21:54.921Z,87.67
2023-02-16T23:24:24.428Z,87.96
2023-02-16T23:26:53.342Z,88.16
2023-02-16T23:29:21.925Z,87.93
2023-02-16T23:31:51.605Z,87.89
2023-02-16T23:34:20.999Z,87.70
2023-02-16T23:36:49.652Z,87.77
2023-02-16T23:39:19.183Z,87.72
2023-02-16T23:41:48.640Z,87.66
2023-02-16T23:44:17.487Z,87.71
2023-02-16T23:46:46.087Z,87.66
2023-02-16T23:49:15.358Z,87.62
2023-02-16T23:51:43.949Z,87.68
2023-02-16T23:54:12.663Z,87.74
2023-02-16T23:56:41.914Z,87.91
2023-02-16T23:59:10.530Z,87.80
